Time;durP1;ratioP1;P1;durP2;ratioP2;P2;SDS_P1;SDS_P2;PMS_P1;PMS_P2;Temp;Humidity;BMP_temperature;BMP_pressure;BME280_temperature;BME280_humidity;BME280_pressure;Samples;Min_cycle;Max_cycle;Signal;HPM_P1;HPM_P2
2024/04/21 00:02:17;;;;;;;;;;;;;;;;;;5474104;26;19928;-71
2024/04/21 00:04:46;;;;;;;;;;;;;;;;;;5478705;26;19957;-72
2024/04/21 00:07:12;;;;;;;;;;;;;;;;;;5474797;26;19932;-71
2024/04/21 00:09:40;;;;;;;;;;;;;;;;;;5474586;26;20141;-72
2024/04/21 00:12:07;;;;;;;;;;;;;;;;;;5476024;26;19928;-72
2024/04/21 00:14:35;;;;;;;;;;;;;;;;;;5468637;26;19928;-72
2024/04/21 00:17:01;;;;;;;;;;;;;;;;;;5474167;26;19932;-71
2024/04/21 00:19:30;;;;;;;;;;;;;;;;;;5478566;26;20396;-71
2024/04/21 00:21:56;;;;;;;;;;;;;;;;;;5472989;26;19939;-72
2024/04/21 00:24:28;;;;;;;;;;;;;;;;;;5472555;26;19943;-71
2024/04/21 00:26:54;;;;;;;;;;;;;;;;;;5468073;26;19960;-73
2024/04/21 00:29:23;;;;;;;;;;;;;;;;;;5473715;26;19939;-71
2024/04/21 00:31:49;;;;;;;;;;;;;;;;;;5470047;26;19935;-72
2024/04/21 00:34:17;;;;;;;;;;;;;;;;;;5478277;26;20353;-72
2024/04/21 00:36:43;;;;;;;;;;;;;;;;;;5477832;26;19928;-72
2024/04/21 00:39:12;;;;;;;;;;;;;;;;;;5475785;26;19935;-73
2024/04/21 00:41:38;;;;;;;;;;;;;;;;;;5473199;26;19928;-72
2024/04/21 00:44:07;;;;;;;;;;;;;;;;;;5469330;26;20344;-72
2024/04/21 00:46:33;;;;;;;;;;;;;;;;;;5475022;26;21008;-72
2024/04/21 00:49:02;;;;;;;;;;;;;;;;;;5475962;26;19928;-72
2024/04/21 00:51:28;;;;;;;;;;;;;;;;;;5473724;26;19995;-72
2024/04/21 00:53:57;;;;;;;;;;;;;;;;;;5473022;26;19930;-73
2024/04/21 00:56:23;;;;;;;;;;;;;;;;;;5476426;26;19928;-72
2024/04/21 00:58:52;;;;;;;;;;;;;;;;;;5477939;26;19946;-72
2024/04/21 01:01:18;;;;;;;;;;;;;;;;;;5474880;26;20367;-73
2024/04/21 01:03:46;;;;;;;;;;;;;;;;;;5474130;26;19928;-71
2024/04/21 01:06:12;;;;;;;;;;;;;;;;;;5478112;26;19939;-72
2024/04/21 01:08:41;;;;;;;;;;;;;;;;;;5480480;26;19995;-72
2024/04/21 01:11:08;;;;;;;;;;;;;;;;;;5476546;26;20371;-72
2024/04/21 01:13:36;;;;;;;;;;;;;;;;;;5476830;26;19956;-73
2024/04/21 01:16:02;;;;;;;;;;;;;;;;;;5478456;26;19962;-74
2024/04/21 01:18:31;;;;;;;;;;;;;;;;;;5477203;26;19936;-69
2024/04/21 01:20:57;;;;;;;;;;;;;;;;;;5474854;26;19935;-72
2024/04/21 01:23:26;;;;;;;;;;;;;;;;;;5474751;26;19940;-71
2024/04/21 01:25:52;;;;;;;;;;;;;;;;;;5480551;26;19931;-71
2024/04/21 01:28:21;;;;;;;;;;;;;;;;;;5480210;26;19928;-72
2024/04/21 01:30:47;;;;;;;;;;;;;;;;;;5482195;26;19938;-71
2024/04/21 01:33:16;;;;;;;;;;;;;;;;;;5473313;26;19928;-72
2024/04/21 01:35:42;;;;;;;;;;;;;;;;;;5478452;26;20430;-71
2024/04/21 01:38:10;;;;;;;;;;;;;;;;;;5477902;26;19952;-71
2024/04/21 01:40:36;;;;;;;;;;;;;;;;;;5473393;26;19932;-71
2024/04/21 01:43:05;;;;;;;;;;;;;;;;;;5479433;26;19936;-71
2024/04/21 01:45:31;;;;;;;;;;;;;;;;;;5480839;26;20050;-72
2024/04/21 01:48:00;;;;;;;;;;;;;;;;;;5480751;26;20826;-71
2024/04/21 01:50:26;;;;;;;;;;;;;;;;;;5478112;26;19939;-71
2024/04/21 01:52:55;;;;;;;;;;;;;;;;;;5475682;26;19928;-72
2024/04/21 01:55:21;;;;;;;;;;;;;;;;;;5481710;26;19968;-72
2024/04/21 01:57:49;;;;;;;;;;;;;;;;;;5472850;26;19942;-72
2024/04/21 02:00:15;;;;;;;;;;;;;;;;;;5478855;26;20379;-72
2024/04/21 02:02:44;;;;;;;;;;;;;;;;;;5477544;26;19996;-71
2024/04/21 02:05:10;;;;;;;;;;;;;;;;;;5477032;26;20434;-71
2024/04/21 02:07:39;;;;;;;;;;;;;;;;;;5475789;26;19928;-71
2024/04/21 02:10:05;;;;;;;;;;;;;;;;;;5475218;26;19928;-72
2024/04/21 02:12:34;;;;;;;;;;;;;;;;;;5473020;26;19969;-71
2024/04/21 02:15:00;;;;;;;;;;;;;;;;;;5473148;26;19944;-70
2024/04/21 02:17:29;;;;;;;;;;;;;;;;;;5470767;26;20012;-72
2024/04/21 02:19:55;;;;;;;;;;;;;;;;;;5471823;26;19928;-72
2024/04/21 02:22:23;;;;;;;;;;;;;;;;;;5474037;26;19964;-71
2024/04/21 02:24:50;;;;;;;;;;;;;;;;;;5474189;26;19940;-72
2024/04/21 02:27:18;;;;;;;;;;;;;;;;;;5474209;26;19948;-72
2024/04/21 02:29:45;;;;;;;;;;;;;;;;;;5473355;26;19928;-72
2024/04/21 02:32:14;;;;;;;;;;;;;;;;;;5477702;26;20348;-72
2024/04/21 02:34:40;;;;;;;;;;;;;;;;;;5477560;26;19928;-71
2024/04/21 02:37:09;;;;;;;;;;;;;;;;;;5481632;26;19932;-71
2024/04/21 02:39:35;;;;;;;;;;;;;;;;;;5478332;26;20378;-73
2024/04/21 02:42:03;;;;;;;;;;;;;;;;;;5479427;26;19939;-71
2024/04/21 02:44:29;;;;;;;;;;;;;;;;;;5478708;26;19935;-72
2024/04/21 02:46:58;;;;;;;;;;;;;;;;;;5479761;26;19948;-73
2024/04/21 02:49:24;;;;;;;;;;;;;;;;;;5477859;26;19928;-72
2024/04/21 02:51:53;;;;;;;;;;;;;;;;;;5484633;26;19935;-72
2024/04/21 02:54:21;;;;;;;;;;;;;;;;;;5486572;26;20355;-72
2024/04/21 02:56:50;;;;;;;;;;;;;;;;;;5474944;26;19928;-71
2024/04/21 02:59:16;;;;;;;;;;;;;;;;;;5482787;26;19928;-72
2024/04/21 03:01:44;;;;;;;;;;;;;;;;;;5481192;26;19927;-72
2024/04/21 03:04:11;;;;;;;;;;;;;;;;;;5483386;26;20485;-71
2024/04/21 03:06:39;;;;;;;;;;;;;;;;;;5483877;26;19934;-71
2024/04/21 03:09:05;;;;;;;;;;;;;;;;;;5472691;26;20432;-72
2024/04/21 03:11:34;;;;;;;;;;;;;;;;;;5461748;26;20271;-71
2024/04/21 03:14:00;;;;;;;;;;;;;;;;;;5470999;26;19928;-71
2024/04/21 03:16:29;;;;;;;;;;;;;;;;;;5457964;26;19935;-71
2024/04/21 03:18:55;;;;;;;;;;;;;;;;;;5481958;26;20379;-71
2024/04/21 03:21:24;;;;;;;;;;;;;;;;;;5476671;26;19964;-72
2024/04/21 03:23:51;;;;;;;;;;;;;;;;;;5481722;26;19928;-71
2024/04/21 03:26:19;;;;;;;;;;;;;;;;;;5481496;26;19935;-73
2024/04/21 03:28:46;;;;;;;;;;;;;;;;;;5485284;26;19928;-72
2024/04/21 03:31:14;;;;;;;;;;;;;;;;;;5485486;26;19939;-72
2024/04/21 03:33:43;;;;;;;;;;;;;;;;;;5482573;26;20367;-71
2024/04/21 03:36:10;;;;;;;;;;;;;;;;;;5485133;26;19963;-71
2024/04/21 03:38:39;;;;;;;;;;;;;;;;;;5483672;26;20357;-71
2024/04/21 03:41:07;;;;;;;;;;;;;;;;;;5483138;26;19928;-72
2024/04/21 03:43:36;;;;;;;;;;;;;;;;;;5463110;26;19936;-72
2024/04/21 03:46:05;;;;;;;;;;;;;;;;;;5465685;26;19928;-72
2024/04/21 03:48:31;;;;;;;;;;;;;;;;;;5479593;26;19955;-72
2024/04/21 03:51:00;;;;;;;;;;;;;;;;;;5481520;26;19928;-71
2024/04/21 03:53:26;;;;;;;;;;;;;;;;;;5482934;26;19935;-71
2024/04/21 03:55:54;;;;;;;;;;;;;;;;;;5482307;26;19953;-71
2024/04/21 03:58:20;;;;;;;;;;;;;;;;;;5482307;26;19931;-71
2024/04/21 04:00:49;;;;;;;;;;;;;;;;;;5481218;26;19944;-72
2024/04/21 04:03:15;;;;;;;;;;;;;;;;;;5482017;26;19935;-72
2024/04/21 04:05:44;;;;;;;;;;;;;;;;;;5491172;26;19979;-71
2024/04/21 04:08:10;;;;;;;;;;;;;;;;;;5483499;26;19928;-73
2024/04/21 04:10:39;;;;;;;;;;;;;;;;;;5483811;26;20382;-71
2024/04/21 04:13:05;;;;;;;;;;;;;;;;;;5481368;26;20268;-73
2024/04/21 04:15:33;;;;;;;;;;;;;;;;;;5477872;26;19963;-70
2024/04/21 04:18:00;;;;;;;;;;;;;;;;;;5467542;26;19984;-71
2024/04/21 04:20:28;;;;;;;;;;;;;;;;;;5483076;26;20307;-71
2024/04/21 04:22:54;;;;;;;;;;;;;;;;;;5482079;26;19928;-72
2024/04/21 04:25:23;;;;;;;;;;;;;;;;;;5464961;26;19935;-72
2024/04/21 04:27:49;;;;;;;;;;;;;;;;;;5480172;26;19928;-72
2024/04/21 04:30:18;;;;;;;;;;;;;;;;;;5481372;26;20441;-71
2024/04/21 04:32:44;;;;;;;;;;;;;;;;;;5483583;26;19928;-72
2024/04/21 04:35:13;;;;;;;;;;;;;;;;;;5482226;26;19943;-71
2024/04/21 04:37:40;;;;;;;;;;;;;;;;;;5475437;26;20383;-71
2024/04/21 04:40:08;;;;;;;;;;;;;;;;;;5483096;26;20420;-71
2024/04/21 04:42:35;;;;;;;;;;;;;;;;;;5480641;26;20375;-71
2024/04/21 04:45:03;;;;;;;;;;;;;;;;;;5482496;26;19939;-71
2024/04/21 04:47:29;;;;;;;;;;;;;;;;;;5483224;26;19934;-71
2024/04/21 04:49:58;;;;;;;;;;;;;;;;;;5482551;26;20367;-70
2024/04/21 04:52:24;;;;;;;;;;;;;;;;;;5482289;26;19928;-71
2024/04/21 04:54:53;;;;;;;;;;;;;;;;;;5483312;26;19935;-72
2024/04/21 04:57:19;;;;;;;;;;;;;;;;;;5457108;26;19935;-77
2024/04/21 04:59:48;;;;;;;;;;;;;;;;;;5483984;26;19928;-77
2024/04/21 05:02:14;;;;;;;;;;;;;;;;;;5482287;26;19936;-77
2024/04/21 05:04:42;;;;;;;;;;;;;;;;;;5484896;26;19939;-80
2024/04/21 05:07:08;;;;;;;;;;;;;;;;;;5486163;26;20656;-79
2024/04/21 05:09:37;;;;;;;;;;;;;;;;;;5487324;26;19958;-77
2024/04/21 05:12:03;;;;;;;;;;;;;;;;;;5487137;26;20387;-77
2024/04/21 05:14:32;;;;;;;;;;;;;;;;;;5479721;26;19935;-78
2024/04/21 05:16:58;;;;;;;;;;;;;;;;;;5478351;26;19928;-72
2024/04/21 05:19:27;;;;;;;;;;;;;;;;;;5480519;26;19932;-72
2024/04/21 05:21:53;;;;;;;;;;;;;;;;;;5457526;26;19935;-72
2024/04/21 05:24:22;;;;;;;;;;;;;;;;;;5480811;26;19928;-72
2024/04/21 05:26:48;;;;;;;;;;;;;;;;;;5486993;26;19934;-71
2024/04/21 05:29:16;;;;;;;;;;;;;;;;;;5480909;26;19939;-71
2024/04/21 05:31:42;;;;;;;;;;;;;;;;;;5481066;26;19989;-71
2024/04/21 05:34:11;;;;;;;;;;;;;;;;;;5479682;26;19935;-71
2024/04/21 05:36:37;;;;;;;;;;;;;;;;;;5481032;26;19932;-71
2024/04/21 05:39:06;;;;;;;;;;;;;;;;;;5480794;26;19940;-70
2024/04/21 05:41:32;;;;;;;;;;;;;;;;;;5477357;26;20374;-70
2024/04/21 05:44:01;;;;;;;;;;;;;;;;;;5483119;26;19943;-71
2024/04/21 05:46:27;;;;;;;;;;;;;;;;;;5482695;26;19935;-70
2024/04/21 05:48:55;;;;;;;;;;;;;;;;;;5479703;26;20328;-77
2024/04/21 05:51:22;;;;;;;;;;;;;;;;;;5482720;26;19932;-78
2024/04/21 05:53:50;;;;;;;;;;;;;;;;;;5484988;26;19927;-77
2024/04/21 05:56:16;;;;;;;;;;;;;;;;;;5481948;26;19928;-71
2024/04/21 05:58:45;;;;;;;;;;;;;;;;;;5481008;26;19927;-72
2024/04/21 06:01:11;;;;;;;;;;;;;;;;;;5475821;26;19935;-73
2024/04/21 06:03:40;;;;;;;;;;;;;;;;;;5467912;26;19932;-69
2024/04/21 06:06:06;;;;;;;;;;;;;;;;;;5471189;26;19928;-68
2024/04/21 06:08:35;;;;;;;;;;;;;;;;;;5474638;26;20018;-68
2024/04/21 06:11:01;;;;;;;;;;;;;;;;;;5479078;26;19928;-69
2024/04/21 06:13:30;;;;;;;;;;;;;;;;;;5476300;26;20142;-69
2024/04/21 06:15:56;;;;;;;;;;;;;;;;;;5479281;26;19935;-69
2024/04/21 06:18:24;;;;;;;;;;;;;;;;;;5476706;26;19995;-68
2024/04/21 06:20:50;;;;;;;;;;;;;;;;;;5479460;26;19960;-69
2024/04/21 06:23:19;;;;;;;;;;;;;;;;;;5472335;26;19964;-74
2024/04/21 06:25:45;;;;;;;;;;;;;;;;;;5485445;26;20343;-74
2024/04/21 06:28:15;;;;;;;;;;;;;;;;;;5480872;26;19932;-73
2024/04/21 06:30:41;;;;;;;;;;;;;;;;;;5482080;26;19928;-74
2024/04/21 06:33:10;;;;;;;;;;;;;;;;;;5479239;26;19965;-72
2024/04/21 06:35:36;;;;;;;;;;;;;;;;;;5473081;26;19928;-69
2024/04/21 06:38:04;;;;;;;;;;;;;;;;;;5481181;26;20263;-69
2024/04/21 06:40:30;;;;;;;;;;;;;;;;;;5477327;26;19935;-68
2024/04/21 06:42:59;;;;;;;;;;;;;;;;;;5481757;26;20274;-69
2024/04/21 06:45:25;;;;;;;;;;;;;;;;;;5472385;26;20006;-66
2024/04/21 06:47:54;;;;;;;;;;;;;;;;;;5472470;26;20394;-66
2024/04/21 06:50:20;;;;;;;;;;;;;;;;;;5483097;26;19928;-65
2024/04/21 06:52:49;;;;;;;;;;;;;;;;;;5483794;26;19935;-71
2024/04/21 06:55:15;;;;;;;;;;;;;;;;;;5482880;26;19928;-71
2024/04/21 06:57:44;;;;;;;;;;;;;;;;;;5474341;26;19928;-71
2024/04/21 07:00:10;;;;;;;;;;;;;;;;;;5479328;26;19928;-69
2024/04/21 07:02:39;;;;;;;;;;;;;;;;;;5482101;26;19928;-68
2024/04/21 07:05:05;;;;;;;;;;;;;;;;;;5481443;26;19935;-68
2024/04/21 07:07:33;;;;;;;;;;;;;;;;;;5480856;26;19960;-69
2024/04/21 07:09:59;;;;;;;;;;;;;;;;;;5473734;26;20777;-68
2024/04/21 07:12:28;;;;;;;;;;;;;;;;;;5482102;26;19936;-66
2024/04/21 07:14:54;;;;;;;;;;;;;;;;;;5478560;26;20355;-70
2024/04/21 07:17:23;;;;;;;;;;;;;;;;;;5480068;26;19967;-70
2024/04/21 07:19:49;;;;;;;;;;;;;;;;;;5482336;26;19932;-69
2024/04/21 07:22:18;;;;;;;;;;;;;;;;;;5470775;26;20347;-69
2024/04/21 07:24:44;;;;;;;;;;;;;;;;;;5458670;26;19928;-70
2024/04/21 07:27:12;;;;;;;;;;;;;;;;;;5477886;25;19960;-71
2024/04/21 07:29:39;;;;;;;;;;;;;;;;;;5474285;26;19928;-71
2024/04/21 07:32:07;;;;;;;;;;;;;;;;;;5465207;26;19936;-71
2024/04/21 07:34:33;;;;;;;;;;;;;;;;;;5480456;26;20672;-72
2024/04/21 07:37:02;;;;;;;;;;;;;;;;;;5479889;26;19928;-72
2024/04/21 07:39:29;;;;;;;;;;;;;;;;;;5480402;26;19932;-74
2024/04/21 07:41:58;;;;;;;;;;;;;;;;;;5472826;26;20497;-71
2024/04/21 07:44:24;;;;;;;;;;;;;;;;;;5453991;26;20029;-72
2024/04/21 07:46:52;;;;;;;;;;;;;;;;;;5457896;26;20054;-70
2024/04/21 07:49:18;;;;;;;;;;;;;;;;;;5478365;26;19928;-70
2024/04/21 07:51:47;;;;;;;;;;;;;;;;;;5479384;26;20343;-72
2024/04/21 07:54:13;;;;;;;;;;;;;;;;;;5470247;26;20379;-72
2024/04/21 07:56:42;;;;;;;;;;;;;;;;;;5476565;26;19928;-72
2024/04/21 07:59:08;;;;;;;;;;;;;;;;;;5474137;26;19928;-72
2024/04/21 08:01:37;;;;;;;;;;;;;;;;;;5476863;26;20431;-71
2024/04/21 08:04:03;;;;;;;;;;;;;;;;;;5476914;26;20476;-72
2024/04/21 08:06:31;;;;;;;;;;;;;;;;;;5473862;26;19997;-71
2024/04/21 08:08:57;;;;;;;;;;;;;;;;;;5474463;26;19935;-69
2024/04/21 08:11:26;;;;;;;;;;;;;;;;;;5464909;26;19940;-69
2024/04/21 08:13:52;;;;;;;;;;;;;;;;;;5480741;26;19931;-71
2024/04/21 08:16:21;;;;;;;;;;;;;;;;;;5477640;26;19928;-70
2024/04/21 08:18:47;;;;;;;;;;;;;;;;;;5466158;26;19928;-73
2024/04/21 08:21:16;;;;;;;;;;;;;;;;;;5476661;26;19939;-72
2024/04/21 08:23:42;;;;;;;;;;;;;;;;;;5456444;26;19936;-71
2024/04/21 08:26:10;;;;;;;;;;;;;;;;;;5481789;26;20476;-72
2024/04/21 08:28:36;;;;;;;;;;;;;;;;;;5482176;26;20374;-71
2024/04/21 08:31:05;;;;;;;;;;;;;;;;;;5469440;26;19967;-71
2024/04/21 08:33:31;;;;;;;;;;;;;;;;;;5482505;26;20263;-72
2024/04/21 08:36:00;;;;;;;;;;;;;;;;;;5483551;26;19937;-74
2024/04/21 08:38:26;;;;;;;;;;;;;;;;;;5471893;26;19928;-72
2024/04/21 08:40:55;;;;;;;;;;;;;;;;;;5458728;26;20087;-72
2024/04/21 08:43:21;;;;;;;;;;;;;;;;;;5476541;26;19928;-72
2024/04/21 08:45:49;;;;;;;;;;;;;;;;;;5455912;26;19935;-72
2024/04/21 08:48:15;;;;;;;;;;;;;;;;;;5461995;26;19951;-71
2024/04/21 08:50:44;;;;;;;;;;;;;;;;;;5474841;26;19999;-72
2024/04/21 08:53:10;;;;;;;;;;;;;;;;;;5476472;26;19928;-71
2024/04/21 08:55:39;;;;;;;;;;;;;;;;;;5472830;26;19927;-72
2024/04/21 08:58:05;;;;;;;;;;;;;;;;;;5463197;26;20254;-71
2024/04/21 09:00:34;;;;;;;;;;;;;;;;;;5462123;26;19966;-71
2024/04/21 09:03:00;;;;;;;;;;;;;;;;;;5465818;26;19929;-71
2024/04/21 09:05:28;;;;;;;;;;;;;;;;;;5455783;26;19951;-71
2024/04/21 09:07:54;;;;;;;;;;;;;;;;;;5481043;26;19928;-70
2024/04/21 09:10:23;;;;;;;;;;;;;;;;;;5462668;26;19942;-71
2024/04/21 09:12:49;;;;;;;;;;;;;;;;;;5472585;26;19928;-71
2024/04/21 09:15:18;;;;;;;;;;;;;;;;;;5461896;26;19939;-73
2024/04/21 09:17:44;;;;;;;;;;;;;;;;;;5455637;26;19994;-71
2024/04/21 09:20:13;;;;;;;;;;;;;;;;;;5474578;26;19928;-71
2024/04/21 09:22:39;;;;;;;;;;;;;;;;;;5471947;26;20248;-71
2024/04/21 09:25:07;;;;;;;;;;;;;;;;;;5476732;26;19991;-72
2024/04/21 09:27:34;;;;;;;;;;;;;;;;;;5464579;26;19932;-72
2024/04/21 09:30:02;;;;;;;;;;;;;;;;;;5462195;26;19940;-72
2024/04/21 09:32:28;;;;;;;;;;;;;;;;;;5468421;26;19928;-72
2024/04/21 09:34:57;;;;;;;;;;;;;;;;;;5473067;26;19935;-75
2024/04/21 09:37:23;;;;;;;;;;;;;;;;;;5459149;26;20272;-75
2024/04/21 09:39:52;;;;;;;;;;;;;;;;;;5467052;26;20034;-75
2024/04/21 09:42:18;;;;;;;;;;;;;;;;;;5471211;26;19928;-76
2024/04/21 09:44:49;;;;;;;;;;;;;;;;;;5483636;26;19939;-75
2024/04/21 09:47:15;;;;;;;;;;;;;;;;;;5471664;26;19929;-73
2024/04/21 09:49:44;;;;;;;;;;;;;;;;;;5458986;26;19935;-74
2024/04/21 09:52:10;;;;;;;;;;;;;;;;;;5480618;26;19931;-73
2024/04/21 09:54:38;;;;;;;;;;;;;;;;;;5472655;26;19932;-74
2024/04/21 09:57:05;;;;;;;;;;;;;;;;;;5475318;26;19928;-73
2024/04/21 09:59:33;;;;;;;;;;;;;;;;;;5476634;26;19936;-73
2024/04/21 10:02:00;;;;;;;;;;;;;;;;;;5477068;26;19939;-72
2024/04/21 10:04:28;;;;;;;;;;;;;;;;;;5473066;26;19944;-73
2024/04/21 10:06:54;;;;;;;;;;;;;;;;;;5478846;26;19936;-73
2024/04/21 10:09:23;;;;;;;;;;;;;;;;;;5476624;26;20467;-72
2024/04/21 10:11:49;;;;;;;;;;;;;;;;;;5468964;26;20263;-72
2024/04/21 10:14:18;;;;;;;;;;;;;;;;;;5465048;26;20376;-72
2024/04/21 10:16:44;;;;;;;;;;;;;;;;;;5471265;26;19928;-71
2024/04/21 10:19:13;;;;;;;;;;;;;;;;;;5479225;26;20602;-72
2024/04/21 10:21:39;;;;;;;;;;;;;;;;;;5474838;26;19935;-72
2024/04/21 10:24:08;;;;;;;;;;;;;;;;;;5475025;26;20764;-75
2024/04/21 10:26:34;;;;;;;;;;;;;;;;;;5477874;26;19928;-74
2024/04/21 10:29:02;;;;;;;;;;;;;;;;;;5478036;26;19979;-73
2024/04/21 10:31:29;;;;;;;;;;;;;;;;;;5475600;26;19965;-73
2024/04/21 10:33:57;;;;;;;;;;;;;;;;;;5466619;26;19960;-74
2024/04/21 10:36:23;;;;;;;;;;;;;;;;;;5464211;26;20454;-74
2024/04/21 10:38:52;;;;;;;;;;;;;;;;;;5463698;26;19963;-71
2024/04/21 10:41:18;;;;;;;;;;;;;;;;;;5479707;26;19927;-70
2024/04/21 10:43:47;;;;;;;;;;;;;;;;;;5476404;26;19938;-72
2024/04/21 10:46:13;;;;;;;;;;;;;;;;;;5469703;26;19978;-70
2024/04/21 10:48:42;;;;;;;;;;;;;;;;;;5478125;26;20037;-71
2024/04/21 10:51:08;;;;;;;;;;;;;;;;;;5471103;26;19928;-71
2024/04/21 10:53:36;;;;;;;;;;;;;;;;;;5474977;26;19936;-71
2024/04/21 10:56:03;;;;;;;;;;;;;;;;;;5470402;26;19943;-71
2024/04/21 10:58:31;;;;;;;;;;;;;;;;;;5475593;26;19943;-71
2024/04/21 11:01:00;;;;;;;;;;;;;;;;;;5474905;26;19927;-72
2024/04/21 11:03:26;;;;;;;;;;;;;;;;;;5479165;26;20376;-72
2024/04/21 11:05:55;;;;;;;;;;;;;;;;;;5476460;26;20395;-72
2024/04/21 11:08:23;;;;;;;;;;;;;;;;;;5475584;26;20813;-74
2024/04/21 11:10:52;;;;;;;;;;;;;;;;;;5470824;26;19944;-74
2024/04/21 11:13:18;;;;;;;;;;;;;;;;;;5464815;26;19932;-74
2024/04/21 11:15:47;;;;;;;;;;;;;;;;;;5472900;26;19928;-73
2024/04/21 11:18:13;;;;;;;;;;;;;;;;;;5476807;26;19936;-73
2024/04/21 11:20:42;;;;;;;;;;;;;;;;;;5474610;26;20393;-72
2024/04/21 11:23:09;;;;;;;;;;;;;;;;;;5482076;26;19972;-73
2024/04/21 11:25:38;;;;;;;;;;;;;;;;;;5474134;26;19928;-74
2024/04/21 11:28:04;;;;;;;;;;;;;;;;;;5468551;26;19943;-73
2024/04/21 11:30:33;;;;;;;;;;;;;;;;;;5478843;26;19960;-72
2024/04/21 11:32:59;;;;;;;;;;;;;;;;;;5480963;26;19928;-72
2024/04/21 11:35:28;;;;;;;;;;;;;;;;;;5470105;25;20467;-72
2024/04/21 11:37:54;;;;;;;;;;;;;;;;;;5479973;26;19928;-73
2024/04/21 11:40:23;;;;;;;;;;;;;;;;;;5478396;26;19928;-76
2024/04/21 11:42:49;;;;;;;;;;;;;;;;;;5470579;26;20424;-73
2024/04/21 11:45:18;;;;;;;;;;;;;;;;;;5473554;26;19927;-73
2024/04/21 11:47:44;;;;;;;;;;;;;;;;;;5472709;26;19928;-75
2024/04/21 11:50:12;;;;;;;;;;;;;;;;;;5452589;26;19974;-73
2024/04/21 11:52:38;;;;;;;;;;;;;;;;;;5463585;26;20446;-74
2024/04/21 11:55:07;;;;;;;;;;;;;;;;;;5459956;26;20383;-71
2024/04/21 11:57:33;;;;;;;;;;;;;;;;;;5474491;26;19958;-74
2024/04/21 12:00:02;;;;;;;;;;;;;;;;;;5482080;26;20336;-75
2024/04/21 12:02:28;;;;;;;;;;;;;;;;;;5473791;26;19935;-74
2024/04/21 12:04:57;;;;;;;;;;;;;;;;;;5472209;26;19928;-75
2024/04/21 12:07:23;;;;;;;;;;;;;;;;;;5483934;26;19955;-73
2024/04/21 12:09:52;;;;;;;;;;;;;;;;;;5453232;26;19932;-75
2024/04/21 12:12:18;;;;;;;;;;;;;;;;;;5476751;26;19928;-73
2024/04/21 12:14:46;;;;;;;;;;;;;;;;;;5465947;26;19935;-73
2024/04/21 12:17:16;;;;;;;;;;;;;;;;;;5482342;26;19928;-73
2024/04/21 12:19:45;;;;;;;;;;;;;;;;;;5494775;26;20461;-73
2024/04/21 12:22:11;;;;;;;;;;;;;;;;;;5472730;26;20339;-74
2024/04/21 12:24:40;;;;;;;;;;;;;;;;;;5468324;25;19935;-73
2024/04/21 12:27:06;;;;;;;;;;;;;;;;;;5478628;26;19928;-73
2024/04/21 12:29:35;;;;;;;;;;;;;;;;;;5464795;26;19939;-74
2024/04/21 12:32:01;;;;;;;;;;;;;;;;;;5479531;26;19928;-73
2024/04/21 12:34:29;;;;;;;;;;;;;;;;;;5474604;26;19932;-73
2024/04/21 12:36:55;;;;;;;;;;;;;;;;;;5470694;26;19928;-73
2024/04/21 12:39:24;;;;;;;;;;;;;;;;;;5467989;26;19939;-73
2024/04/21 12:41:50;;;;;;;;;;;;;;;;;;5498915;26;19939;-73
2024/04/21 12:44:19;;;;;;;;;;;;;;;;;;5483209;26;19934;-74
2024/04/21 12:46:45;;;;;;;;;;;;;;;;;;5482502;26;19929;-73
2024/04/21 12:49:14;;;;;;;;;;;;;;;;;;5480076;26;19953;-75
2024/04/21 12:51:40;;;;;;;;;;;;;;;;;;5475524;26;20014;-73
2024/04/21 12:54:08;;;;;;;;;;;;;;;;;;5457372;26;19935;-74
2024/04/21 12:56:34;;;;;;;;;;;;;;;;;;5481223;26;19935;-74
2024/04/21 12:59:04;;;;;;;;;;;;;;;;;;5482812;26;20404;-73
2024/04/21 13:01:30;;;;;;;;;;;;;;;;;;5459158;26;19928;-74
2024/04/21 13:03:58;;;;;;;;;;;;;;;;;;5466636;26;20013;-74
2024/04/21 13:06:24;;;;;;;;;;;;;;;;;;5467176;26;19939;-73
2024/04/21 13:08:53;;;;;;;;;;;;;;;;;;5472431;26;19936;-72
2024/04/21 13:11:19;;;;;;;;;;;;;;;;;;5473046;26;20384;-73
2024/04/21 13:13:48;;;;;;;;;;;;;;;;;;5477278;26;19953;-74
2024/04/21 13:16:14;;;;;;;;;;;;;;;;;;5476557;26;19928;-73
2024/04/21 13:18:43;;;;;;;;;;;;;;;;;;5460574;26;19956;-73
2024/04/21 13:21:09;;;;;;;;;;;;;;;;;;5476076;26;19947;-73
2024/04/21 13:23:37;;;;;;;;;;;;;;;;;;5475345;26;19961;-73
2024/04/21 13:26:04;;;;;;;;;;;;;;;;;;5473534;26;19928;-73
2024/04/21 13:28:33;;;;;;;;;;;;;;;;;;5458887;26;19928;-73
2024/04/21 13:30:59;;;;;;;;;;;;;;;;;;5454513;26;19929;-73
2024/04/21 13:33:28;;;;;;;;;;;;;;;;;;5451668;26;19939;-71
2024/04/21 13:35:54;;;;;;;;;;;;;;;;;;5468095;26;19940;-72
2024/04/21 13:38:22;;;;;;;;;;;;;;;;;;5465735;26;19928;-72
2024/04/21 13:40:48;;;;;;;;;;;;;;;;;;5478525;26;19932;-72
2024/04/21 13:43:17;;;;;;;;;;;;;;;;;;5461964;26;19928;-72
2024/04/21 13:45:43;;;;;;;;;;;;;;;;;;5478695;26;19942;-72
2024/04/21 13:48:12;;;;;;;;;;;;;;;;;;5483328;26;19927;-72
2024/04/21 13:50:38;;;;;;;;;;;;;;;;;;5449707;26;19935;-72
2024/04/21 13:53:07;;;;;;;;;;;;;;;;;;5462192;26;19968;-72
2024/04/21 13:55:33;;;;;;;;;;;;;;;;;;5462240;26;19935;-71
2024/04/21 13:58:02;;;;;;;;;;;;;;;;;;5471753;26;19932;-71
2024/04/21 14:00:28;;;;;;;;;;;;;;;;;;5473289;26;19935;-72
2024/04/21 14:02:57;;;;;;;;;;;;;;;;;;5473490;26;19956;-71
2024/04/21 14:05:23;;;;;;;;;;;;;;;;;;5470986;26;19928;-72
2024/04/21 14:07:51;;;;;;;;;;;;;;;;;;5465863;26;19964;-77
2024/04/21 14:10:18;;;;;;;;;;;;;;;;;;5478339;26;19940;-78
2024/04/21 14:12:47;;;;;;;;;;;;;;;;;;5477068;26;19928;-80
2024/04/21 14:15:13;;;;;;;;;;;;;;;;;;5482187;26;19943;-78
2024/04/21 14:17:41;;;;;;;;;;;;;;;;;;5479370;26;19939;-79
2024/04/21 14:20:07;;;;;;;;;;;;;;;;;;5479839;26;19932;-79
2024/04/21 14:22:38;;;;;;;;;;;;;;;;;;5474752;26;20391;-78
2024/04/21 14:25:04;;;;;;;;;;;;;;;;;;5477817;26;19936;-78
2024/04/21 14:27:32;;;;;;;;;;;;;;;;;;5482654;26;19935;-77
2024/04/21 14:29:58;;;;;;;;;;;;;;;;;;5471783;26;19936;-78
2024/04/21 14:32:27;;;;;;;;;;;;;;;;;;5477118;26;19932;-78
2024/04/21 14:34:53;;;;;;;;;;;;;;;;;;5465899;26;19928;-77
2024/04/21 14:37:22;;;;;;;;;;;;;;;;;;5475966;26;19936;-78
2024/04/21 14:39:48;;;;;;;;;;;;;;;;;;5473561;26;19985;-78
2024/04/21 14:42:17;;;;;;;;;;;;;;;;;;5461814;26;20365;-78
2024/04/21 14:44:50;;;;;;;;;;;;;;;;;;5478535;26;19932;-77
2024/04/21 14:47:18;;;;;;;;;;;;;;;;;;5475484;26;19928;-78
2024/04/21 14:49:44;;;;;;;;;;;;;;;;;;5476783;26;19929;-78
2024/04/21 14:52:13;;;;;;;;;;;;;;;;;;5474786;26;19951;-78
2024/04/21 14:54:39;;;;;;;;;;;;;;;;;;5481670;26;19935;-78
2024/04/21 14:57:08;;;;;;;;;;;;;;;;;;5497908;26;19928;-77
2024/04/21 14:59:37;;;;;;;;;;;;;;;;;;5488101;25;19935;-77
2024/04/21 15:02:03;;;;;;;;;;;;;;;;;;5471618;26;19928;-77
2024/04/21 15:04:32;;;;;;;;;;;;;;;;;;5459446;26;19960;-79
2024/04/21 15:06:58;;;;;;;;;;;;;;;;;;5486546;26;19944;-79
2024/04/21 15:09:26;;;;;;;;;;;;;;;;;;5478823;26;20321;-77
2024/04/21 15:11:52;;;;;;;;;;;;;;;;;;5483017;26;19928;-78
2024/04/21 15:14:21;;;;;;;;;;;;;;;;;;5467172;26;19928;-72
2024/04/21 15:16:47;;;;;;;;;;;;;;;;;;5473749;26;20003;-72
2024/04/21 15:19:16;;;;;;;;;;;;;;;;;;5469337;26;19936;-72
2024/04/21 15:21:42;;;;;;;;;;;;;;;;;;5501202;26;19928;-71
2024/04/21 15:24:11;;;;;;;;;;;;;;;;;;5474392;26;19927;-70
2024/04/21 15:26:37;;;;;;;;;;;;;;;;;;5469541;26;19928;-71
2024/04/21 15:29:05;;;;;;;;;;;;;;;;;;5462798;26;20028;-71
2024/04/21 15:31:32;;;;;;;;;;;;;;;;;;5473279;26;19951;-71
2024/04/21 15:34:00;;;;;;;;;;;;;;;;;;5464599;26;19935;-71
2024/04/21 15:36:26;;;;;;;;;;;;;;;;;;5468835;26;19928;-70
2024/04/21 15:38:55;;;;;;;;;;;;;;;;;;5475220;26;20280;-70
2024/04/21 15:41:21;;;;;;;;;;;;;;;;;;5477489;26;20366;-71
2024/04/21 15:43:50;;;;;;;;;;;;;;;;;;5476075;26;19960;-71
2024/04/21 15:46:16;;;;;;;;;;;;;;;;;;5465272;26;20283;-72
2024/04/21 15:48:44;;;;;;;;;;;;;;;;;;5468410;26;19972;-73
2024/04/21 15:51:11;;;;;;;;;;;;;;;;;;5474329;26;19932;-72
2024/04/21 15:53:39;;;;;;;;;;;;;;;;;;5470835;26;19936;-71
2024/04/21 15:56:05;;;;;;;;;;;;;;;;;;5468722;26;20403;-71
2024/04/21 15:58:34;;;;;;;;;;;;;;;;;;5471811;26;19928;-70
2024/04/21 16:01:00;;;;;;;;;;;;;;;;;;5471796;26;19928;-70
2024/04/21 16:03:29;;;;;;;;;;;;;;;;;;5479323;26;20301;-70
2024/04/21 16:05:55;;;;;;;;;;;;;;;;;;5471517;26;19940;-69
2024/04/21 16:08:24;;;;;;;;;;;;;;;;;;5468103;26;20434;-70
2024/04/21 16:10:50;;;;;;;;;;;;;;;;;;5468850;26;19931;-69
2024/04/21 16:13:19;;;;;;;;;;;;;;;;;;5479926;26;19942;-69
2024/04/21 16:15:45;;;;;;;;;;;;;;;;;;5474141;26;19935;-70
2024/04/21 16:18:13;;;;;;;;;;;;;;;;;;5469432;26;20568;-70
2024/04/21 16:20:41;;;;;;;;;;;;;;;;;;5463973;26;20249;-71
2024/04/21 16:23:10;;;;;;;;;;;;;;;;;;5475730;26;19934;-76
2024/04/21 16:25:36;;;;;;;;;;;;;;;;;;5471830;26;19928;-75
2024/04/21 16:28:05;;;;;;;;;;;;;;;;;;5477455;26;19935;-75
2024/04/21 16:30:31;;;;;;;;;;;;;;;;;;5476250;26;19936;-75
2024/04/21 16:33:01;;;;;;;;;;;;;;;;;;5467678;26;19964;-75
2024/04/21 16:35:27;;;;;;;;;;;;;;;;;;5466037;26;19931;-74
2024/04/21 16:37:56;;;;;;;;;;;;;;;;;;5470044;26;20144;-74
2024/04/21 16:40:22;;;;;;;;;;;;;;;;;;5466391;26;19935;-74
2024/04/21 16:42:50;;;;;;;;;;;;;;;;;;5476555;26;19996;-74
2024/04/21 16:45:17;;;;;;;;;;;;;;;;;;5469971;26;19946;-74
2024/04/21 16:47:45;;;;;;;;;;;;;;;;;;5467075;26;19928;-74